Terminal Aerodrome Forecast
Issued by NWS Mobile, AL

Home | Current Version | Previous Version | Text Only | Print | Product List | Glossary On
Versions: 1 2 3 4 5 6 7 8 9 10 11 12 13
000
FTUS44 KMOB 251736
TAFPNS
TAF
KPNS 251736Z 2518/2618 12012KT P6SM VCSH SCT030 BKN050
     FM260000 14007KT P6SM SCT025
     FM260800 13008KT P6SM VCSH BKN025
     FM261200 14011KT 4SM -TSRA BKN020CB OVC035=

USA.gov is the U.S. government's official web portal to all federal, state and local government web resources and services.